createdAt,value
2023-07-25T00:01:26.174Z,99685.63
2023-07-25T00:03:54.737Z,99685.95
2023-07-25T00:06:23.593Z,99684.71
2023-07-25T00:08:52.009Z,99686.58
2023-07-25T00:11:20.524Z,99683.94
2023-07-25T00:13:49.955Z,99679.16
2023-07-25T00:16:18.648Z,99675.25
2023-07-25T00:18:47.178Z,99664.77
2023-07-25T00:21:15.726Z,99662.54
2023-07-25T00:23:44.189Z,99663.45
2023-07-25T00:26:12.641Z,99657.69
2023-07-25T00:28:41.050Z,99651.73
2023-07-25T00:31:09.591Z,99649.45
2023-07-25T00:33:38.055Z,99645.42
2023-07-25T00:36:06.608Z,99648.59
2023-07-25T00:38:35.256Z,99648.61
2023-07-25T00:41:03.766Z,99650.53
2023-07-25T00:43:32.252Z,99656.56
2023-07-25T00:46:00.926Z,99653.83
2023-07-25T00:48:31.545Z,99663.41
2023-07-25T00:51:00.366Z,99667.92
2023-07-25T00:53:28.985Z,99671.13
2023-07-25T00:55:57.634Z,99671.73
2023-07-25T00:58:26.205Z,99669.71
2023-07-25T01:01:03.743Z,99672.19
2023-07-25T01:03:38.212Z,99674.55
2023-07-25T01:06:13.224Z,99671.38
2023-07-25T01:08:52.990Z,99677.05
2023-07-25T01:11:23.729Z,99669.70
2023-07-25T01:13:52.548Z,99663.08
2023-07-25T01:16:29.731Z,99662.06
2023-07-25T01:18:58.876Z,99662.44
2023-07-25T01:21:28.090Z,99651.64
2023-07-25T01:24:03.465Z,99652.07
2023-07-25T01:26:31.987Z,99653.19
2023-07-25T01:29:00.439Z,99652.59
2023-07-25T01:31:29.217Z,99649.28
2023-07-25T01:33:58.046Z,99646.84
2023-07-25T01:36:26.590Z,99640.06
2023-07-25T01:38:55.008Z,99637.83
2023-07-25T01:41:23.681Z,99638.92
2023-07-25T01:43:52.119Z,99635.69
2023-07-25T01:46:20.592Z,99634.13
2023-07-25T01:48:49.063Z,99632.71
2023-07-25T01:51:17.633Z,99630.55
2023-07-25T01:53:46.052Z,99631.57
2023-07-25T01:56:14.508Z,99632.72
2023-07-25T01:58:43.031Z,99631.30
2023-07-25T02:01:11.518Z,99634.63
2023-07-25T02:03:40.001Z,99633.10
2023-07-25T02:06:09.104Z,99631.61
2023-07-25T02:08:37.561Z,99636.88
2023-07-25T02:11:06.230Z,99643.27
2023-07-25T02:13:34.773Z,99647.90
2023-07-25T02:16:03.223Z,99644.75
2023-07-25T02:18:31.808Z,99636.84
2023-07-25T02:21:00.760Z,99635.88
2023-07-25T02:23:29.820Z,99635.42
2023-07-25T02:25:58.288Z,99637.65
2023-07-25T02:28:26.761Z,99631.52
2023-07-25T02:30:55.908Z,99624.97
2023-07-25T02:33:24.469Z,99618.27
2023-07-25T02:35:52.952Z,99615.89
2023-07-25T02:38:21.466Z,99607.96
2023-07-25T02:40:49.919Z,99604.37
2023-07-25T02:43:18.379Z,99606.25
2023-07-25T02:45:46.924Z,99603.52
2023-07-25T02:48:15.692Z,99593.23
2023-07-25T02:50:46.191Z,99594.11
2023-07-25T02:53:14.773Z,99595.75
2023-07-25T02:55:43.354Z,99597.64
2023-07-25T02:58:13.937Z,99596.75
2023-07-25T03:00:42.551Z,99595.02
2023-07-25T03:03:11.114Z,99583.86
2023-07-25T03:05:39.598Z,99575.86
2023-07-25T03:08:08.237Z,99573.34
2023-07-25T03:10:36.704Z,99575.58
2023-07-25T03:13:05.216Z,99572.76
2023-07-25T03:15:33.766Z,99575.15
2023-07-25T03:18:02.389Z,99582.80
2023-07-25T03:20:30.929Z,99589.49
2023-07-25T03:23:00.122Z,99586.91
2023-07-25T03:25:28.531Z,99587.48
2023-07-25T03:27:57.026Z,99587.35
2023-07-25T03:30:25.484Z,99590.08
2023-07-25T03:32:53.991Z,99602.31
2023-07-25T03:35:22.544Z,99611.48
2023-07-25T03:37:51.008Z,99619.17
2023-07-25T03:40:19.588Z,99616.94
2023-07-25T03:42:48.078Z,99615.66
2023-07-25T03:45:16.817Z,99615.67
2023-07-25T03:47:45.256Z,99615.67
2023-07-25T03:50:13.762Z,99617.58
2023-07-25T03:52:42.260Z,99612.85
2023-07-25T03:55:10.680Z,99602.19
2023-07-25T03:57:39.200Z,99582.00
2023-07-25T04:00:08.628Z,99571.29
2023-07-25T04:02:42.722Z,99581.69
2023-07-25T04:05:11.374Z,99592.52
2023-07-25T04:07:39.840Z,99591.07
2023-07-25T04:10:08.850Z,99592.57
2023-07-25T04:12:37.325Z,99592.56
2023-07-25T04:15:06.570Z,99593.13
2023-07-25T04:17:35.269Z,99587.08
2023-07-25T04:20:04.196Z,99590.31
2023-07-25T04:22:32.699Z,99597.67
2023-07-25T04:25:01.226Z,99602.15
2023-07-25T04:27:32.215Z,99600.19
2023-07-25T04:30:00.897Z,99598.04
2023-07-25T04:32:29.449Z,99593.84
2023-07-25T04:34:59.619Z,99611.34
2023-07-25T04:37:28.319Z,99627.66
2023-07-25T04:39:56.867Z,99627.47
2023-07-25T04:42:25.336Z,99629.77
2023-07-25T04:44:54.880Z,99623.35
2023-07-25T04:47:24.180Z,99615.98
2023-07-25T04:49:52.718Z,99617.63
2023-07-25T04:52:21.163Z,99619.56
2023-07-25T04:54:50.482Z,99614.05
2023-07-25T04:57:19.139Z,99610.19
2023-07-25T04:59:47.669Z,99606.39
2023-07-25T05:02:16.177Z,99601.23
2023-07-25T05:04:44.683Z,99592.54
2023-07-25T05:07:16.514Z,99574.48
2023-07-25T05:09:44.991Z,99559.25
2023-07-25T05:12:14.947Z,99555.85
2023-07-25T05:14:43.528Z,99547.77
2023-07-25T05:17:11.961Z,99542.57
2023-07-25T05:19:42.877Z,99543.46
2023-07-25T05:22:11.444Z,99555.94
2023-07-25T05:24:39.962Z,99563.27
2023-07-25T05:27:08.456Z,99562.02
2023-07-25T05:29:36.893Z,99549.58
2023-07-25T05:32:06.123Z,99533.44
2023-07-25T05:34:34.622Z,99527.48
2023-07-25T05:37:03.168Z,99523.54
2023-07-25T05:39:31.691Z,99526.12
2023-07-25T05:42:00.161Z,99527.16
2023-07-25T05:44:28.638Z,99533.58
2023-07-25T05:46:57.032Z,99536.23
2023-07-25T05:49:25.600Z,99533.67
2023-07-25T05:51:55.204Z,99541.50
2023-07-25T05:54:23.684Z,99547.51
2023-07-25T05:56:52.136Z,99546.30
2023-07-25T05:59:22.132Z,99543.58
2023-07-25T06:01:50.726Z,99549.04
2023-07-25T06:04:19.223Z,99549.80
2023-07-25T06:06:47.629Z,99542.53
2023-07-25T06:09:16.736Z,99531.48
2023-07-25T06:11:45.165Z,99532.08
2023-07-25T06:14:13.589Z,99536.27
2023-07-25T06:16:42.065Z,99540.29
2023-07-25T06:19:10.842Z,99539.42
2023-07-25T06:21:39.601Z,99535.99
2023-07-25T06:24:08.236Z,99528.63
2023-07-25T06:26:36.764Z,99530.11
2023-07-25T06:29:05.229Z,99543.77
2023-07-25T06:31:34.230Z,99556.25
2023-07-25T06:34:02.960Z,99563.09
2023-07-25T06:36:31.401Z,99563.44
2023-07-25T06:38:59.827Z,99562.87
2023-07-25T06:41:28.386Z,99567.91
2023-07-25T06:43:58.920Z,99566.55
2023-07-25T06:46:27.467Z,99570.23
2023-07-25T06:48:55.996Z,99569.13
2023-07-25T06:51:24.444Z,99572.70
2023-07-25T06:53:52.965Z,99577.31
2023-07-25T06:56:21.728Z,99584.58
2023-07-25T06:58:50.173Z,99598.54
2023-07-25T07:01:18.887Z,99605.92
2023-07-25T07:03:47.520Z,99602.99
2023-07-25T07:06:16.097Z,99613.86
2023-07-25T07:08:44.506Z,99625.36
2023-07-25T07:11:13.043Z,99626.48
2023-07-25T07:13:41.485Z,99614.86
2023-07-25T07:16:10.916Z,99616.54
2023-07-25T07:18:39.381Z,99618.19
2023-07-25T07:21:07.956Z,99608.04
2023-07-25T07:23:36.415Z,99599.84
2023-07-25T07:26:04.843Z,99579.91
2023-07-25T07:28:33.290Z,99564.29
2023-07-25T07:31:01.791Z,99555.73
2023-07-25T07:33:31.597Z,99540.14
2023-07-25T07:36:00.183Z,99533.79
2023-07-25T07:38:28.750Z,99517.55
2023-07-25T07:40:57.216Z,99491.99
2023-07-25T07:43:25.678Z,99473.13
2023-07-25T07:45:54.174Z,99457.64
2023-07-25T07:48:22.643Z,99443.17
2023-07-25T07:50:51.232Z,99431.02
2023-07-25T07:53:19.724Z,99409.80
2023-07-25T07:55:48.151Z,99398.98
2023-07-25T07:58:16.647Z,99396.98
2023-07-25T08:00:45.085Z,99400.91
2023-07-25T08:03:13.514Z,99403.56
2023-07-25T08:05:42.108Z,99404.20
2023-07-25T08:08:10.665Z,99395.12
2023-07-25T08:10:39.182Z,99379.05
2023-07-25T08:13:07.665Z,99386.63
2023-07-25T08:15:36.147Z,99407.57
2023-07-25T08:18:04.638Z,99418.27
2023-07-25T08:20:33.094Z,99416.73
2023-07-25T08:23:01.529Z,99404.46
2023-07-25T08:25:30.016Z,99406.52
2023-07-25T08:27:58.588Z,99412.95
2023-07-25T08:30:27.705Z,99414.66
2023-07-25T08:32:56.253Z,99410.35
2023-07-25T08:35:25.130Z,99401.48
2023-07-25T08:37:53.595Z,99402.69
2023-07-25T08:40:22.121Z,99413.07
2023-07-25T08:42:51.777Z,99417.40
2023-07-25T08:45:21.323Z,99431.31
2023-07-25T08:47:51.826Z,99436.87
2023-07-25T08:50:22.527Z,99445.06
2023-07-25T08:52:53.793Z,99444.59
2023-07-25T08:55:22.498Z,99446.48
2023-07-25T08:57:52.644Z,99452.02
2023-07-25T09:00:22.494Z,99442.64
2023-07-25T09:02:53.869Z,99431.24
2023-07-25T09:05:23.753Z,99419.27
2023-07-25T09:07:52.213Z,99417.13
2023-07-25T09:10:20.875Z,99418.80
2023-07-25T09:12:49.346Z,99426.19
2023-07-25T09:15:18.029Z,99426.31
2023-07-25T09:17:46.560Z,99421.58
2023-07-25T09:20:15.856Z,99420.88
2023-07-25T09:22:51.005Z,99418.77
2023-07-25T09:25:19.524Z,99421.95
2023-07-25T09:27:47.973Z,99421.44
2023-07-25T09:30:16.515Z,99415.41
2023-07-25T09:32:48.655Z,99415.17
2023-07-25T09:35:17.160Z,99415.85
2023-07-25T09:37:54.115Z,99418.52
2023-07-25T09:40:23.297Z,99419.49
2023-07-25T09:42:52.718Z,99414.92
2023-07-25T09:45:21.417Z,99424.20
2023-07-25T09:47:52.945Z,99426.34
2023-07-25T09:50:27.514Z,99424.04
2023-07-25T09:52:56.020Z,99421.16
2023-07-25T09:55:24.708Z,99422.37
2023-07-25T09:57:53.697Z,99414.20
2023-07-25T10:00:22.533Z,99408.95
2023-07-25T10:02:51.815Z,99398.92
2023-07-25T10:05:21.044Z,99396.03
2023-07-25T10:07:50.672Z,99392.54
2023-07-25T10:10:19.363Z,99378.93
2023-07-25T10:12:47.860Z,99376.27
2023-07-25T10:15:16.493Z,99368.63
2023-07-25T10:17:45.674Z,99365.80
2023-07-25T10:20:25.473Z,99366.50
2023-07-25T10:22:54.011Z,99370.60
2023-07-25T10:25:30.245Z,99384.63
2023-07-25T10:28:05.781Z,99390.13
2023-07-25T10:30:44.117Z,99391.23
2023-07-25T10:33:15.081Z,99398.89
2023-07-25T10:35:51.459Z,99393.39
2023-07-25T10:38:42.389Z,99390.05
2023-07-25T10:41:17.179Z,99370.67
2023-07-25T10:43:53.618Z,99359.94
2023-07-25T10:46:29.964Z,99353.52
2023-07-25T10:49:15.054Z,99350.95
2023-07-25T10:51:55.324Z,99355.92
2023-07-25T10:54:25.647Z,99350.23
2023-07-25T10:57:15.864Z,99345.71
2023-07-25T11:00:07.116Z,99340.61
2023-07-25T11:02:42.034Z,99337.11
2023-07-25T11:05:13.374Z,99340.88
2023-07-25T11:07:47.772Z,99334.05
2023-07-25T11:10:27.966Z,99325.95
2023-07-25T11:13:01.400Z,99328.95
2023-07-25T11:15:40.818Z,99328.77
2023-07-25T11:18:15.449Z,99319.33
2023-07-25T11:20:43.931Z,99316.83
2023-07-25T11:23:12.668Z,99312.96
2023-07-25T11:25:41.343Z,99310.02
2023-07-25T11:28:10.196Z,99312.52
2023-07-25T11:30:44.636Z,99317.00
2023-07-25T11:33:13.135Z,99311.23
2023-07-25T11:35:41.610Z,99307.55
2023-07-25T11:38:11.591Z,99295.31
2023-07-25T11:40:42.002Z,99294.02
2023-07-25T11:43:14.407Z,99286.63
2023-07-25T11:45:45.472Z,99279.41
2023-07-25T11:48:17.476Z,99273.52
2023-07-25T11:50:50.316Z,99279.43
2023-07-25T11:53:22.070Z,99278.05
2023-07-25T11:55:54.627Z,99277.52
2023-07-25T11:58:24.103Z,99273.52
2023-07-25T12:00:55.918Z,99269.46
2023-07-25T12:03:27.531Z,99272.42
2023-07-25T12:06:02.087Z,99265.49
2023-07-25T12:08:42.962Z,99260.34
2023-07-25T12:11:16.765Z,99254.89
2023-07-25T12:13:53.443Z,99252.00
2023-07-25T12:16:28.187Z,99255.52
2023-07-25T12:19:06.830Z,99248.43
2023-07-25T12:21:38.175Z,99239.58
2023-07-25T12:24:11.389Z,99243.01
2023-07-25T12:26:55.542Z,99245.43
2023-07-25T12:29:26.047Z,99248.48
2023-07-25T12:31:55.816Z,99243.92
2023-07-25T12:34:24.303Z,99234.79
2023-07-25T12:36:54.303Z,99231.61
2023-07-25T12:39:23.355Z,99233.45
2023-07-25T12:41:51.878Z,99231.02
2023-07-25T12:44:20.343Z,99226.17
2023-07-25T12:46:48.990Z,99221.83
2023-07-25T12:49:17.489Z,99217.36
2023-07-25T12:51:46.013Z,99214.78
2023-07-25T12:54:14.592Z,99221.98
2023-07-25T12:56:43.040Z,99216.27
2023-07-25T12:59:11.567Z,99210.56
2023-07-25T13:01:40.262Z,99206.55
2023-07-25T13:04:08.992Z,99210.95
2023-07-25T13:06:37.634Z,99203.00
2023-07-25T13:09:06.092Z,99202.01
2023-07-25T13:11:34.792Z,99198.94
2023-07-25T13:14:03.935Z,99191.11
2023-07-25T13:16:32.412Z,99188.32
2023-07-25T13:19:00.959Z,99182.09
2023-07-25T13:21:29.734Z,99182.88
2023-07-25T13:23:58.546Z,99178.11
2023-07-25T13:26:27.021Z,99176.52
2023-07-25T13:28:55.503Z,99174.00
2023-07-25T13:31:23.942Z,99159.46
2023-07-25T13:33:53.013Z,99151.58
2023-07-25T13:36:21.520Z,99150.88
2023-07-25T13:38:49.979Z,99143.23
2023-07-25T13:41:18.430Z,99140.85
2023-07-25T13:43:46.904Z,99139.58
2023-07-25T13:46:15.458Z,99141.45
2023-07-25T13:48:43.937Z,99140.09
2023-07-25T13:51:12.395Z,99139.02
2023-07-25T13:53:40.904Z,99133.73
2023-07-25T13:56:09.428Z,99134.43
2023-07-25T13:58:38.028Z,99129.85
2023-07-25T14:01:06.521Z,99132.23
2023-07-25T14:03:35.062Z,99142.64
2023-07-25T14:06:03.587Z,99133.84
2023-07-25T14:08:32.662Z,99135.08
2023-07-25T14:11:01.472Z,99141.63
2023-07-25T14:13:30.028Z,99145.27
2023-07-25T14:15:58.626Z,99144.23
2023-07-25T14:18:27.360Z,99139.23
2023-07-25T14:21:00.601Z,99137.80
2023-07-25T14:23:29.252Z,99134.24
2023-07-25T14:25:57.768Z,99124.38
2023-07-25T14:28:26.249Z,99122.60
2023-07-25T14:30:55.387Z,99114.11
2023-07-25T14:33:23.924Z,99111.58
2023-07-25T14:35:52.318Z,99112.40
2023-07-25T14:38:20.795Z,99117.30
2023-07-25T14:40:49.284Z,99121.70
2023-07-25T14:43:17.813Z,99118.08
2023-07-25T14:45:46.249Z,99116.91
2023-07-25T14:48:14.787Z,99120.08
2023-07-25T14:50:43.393Z,99119.89
2023-07-25T14:53:11.952Z,99124.42
2023-07-25T14:55:40.466Z,99117.80
2023-07-25T14:58:08.984Z,99112.20
2023-07-25T15:00:37.853Z,99104.80
2023-07-25T15:03:06.611Z,99098.20
2023-07-25T15:05:35.264Z,99091.39
2023-07-25T15:08:03.786Z,99092.05
2023-07-25T15:10:32.565Z,99089.95
2023-07-25T15:13:01.092Z,99089.51
2023-07-25T15:15:29.625Z,99084.20
2023-07-25T15:17:58.129Z,99074.68
2023-07-25T15:20:26.816Z,99070.51
2023-07-25T15:22:55.404Z,99071.64
2023-07-25T15:25:24.257Z,99065.04
2023-07-25T15:27:53.251Z,99055.77
2023-07-25T15:30:21.721Z,99054.91
2023-07-25T15:32:50.288Z,99055.23
2023-07-25T15:35:18.779Z,99052.47
2023-07-25T15:37:48.839Z,99047.25
2023-07-25T15:40:18.176Z,99045.25
2023-07-25T15:42:46.659Z,99041.49
2023-07-25T15:45:15.085Z,99040.25
2023-07-25T15:47:43.600Z,99036.98
2023-07-25T15:50:12.233Z,99027.97
2023-07-25T15:52:40.899Z,99019.56
2023-07-25T15:55:09.696Z,99008.88
2023-07-25T15:57:38.213Z,99000.00
2023-07-25T16:00:07.909Z,98988.75
2023-07-25T16:02:37.380Z,98980.26
2023-07-25T16:05:07.191Z,98980.67
2023-07-25T16:07:36.027Z,98981.76
2023-07-25T16:10:06.598Z,98984.02
2023-07-25T16:12:35.391Z,98987.29
2023-07-25T16:15:04.506Z,98997.69
2023-07-25T16:17:33.122Z,99006.00
2023-07-25T16:20:04.655Z,99010.77
2023-07-25T16:22:33.496Z,99011.86
2023-07-25T16:25:03.200Z,99019.52
2023-07-25T16:27:31.800Z,99027.57
2023-07-25T16:30:00.294Z,99029.79
2023-07-25T16:32:29.397Z,99034.73
2023-07-25T16:34:58.946Z,99037.30
2023-07-25T16:37:28.035Z,99038.14
2023-07-25T16:39:56.641Z,99039.04
2023-07-25T16:42:25.231Z,99044.90
2023-07-25T16:44:55.782Z,99049.42
2023-07-25T16:47:24.375Z,99038.42
2023-07-25T16:49:53.062Z,99024.11
2023-07-25T16:52:21.534Z,99023.09
2023-07-25T16:54:49.963Z,99031.77
2023-07-25T16:57:18.412Z,99038.71
2023-07-25T16:59:46.884Z,99041.73
2023-07-25T17:02:15.363Z,99044.50
2023-07-25T17:04:43.860Z,99046.02
2023-07-25T17:07:12.362Z,99040.13
2023-07-25T17:09:40.874Z,99028.86
2023-07-25T17:12:09.443Z,99033.85
2023-07-25T17:14:37.912Z,99040.03
2023-07-25T17:17:06.451Z,99043.48
2023-07-25T17:19:34.925Z,99042.53
2023-07-25T17:22:04.251Z,99031.02
2023-07-25T17:24:34.138Z,99021.05
2023-07-25T17:27:02.631Z,99021.11
2023-07-25T17:29:31.122Z,99026.80
2023-07-25T17:32:00.457Z,99026.30
2023-07-25T17:34:29.204Z,99027.33
2023-07-25T17:36:57.730Z,99025.60
2023-07-25T17:39:26.271Z,99024.52
2023-07-25T17:41:54.740Z,99018.58
2023-07-25T17:44:23.585Z,99014.34
2023-07-25T17:46:52.105Z,99019.64
2023-07-25T17:49:21.089Z,99022.10
2023-07-25T17:51:49.681Z,99030.20
2023-07-25T17:54:18.175Z,99040.36
2023-07-25T17:56:46.807Z,99050.68
2023-07-25T17:59:15.335Z,99053.52
2023-07-25T18:01:43.875Z,99064.97
2023-07-25T18:04:12.981Z,99069.44
2023-07-25T18:20:14.904Z,99097.24
2023-07-25T18:22:44.205Z,99115.34
2023-07-25T18:25:12.888Z,99110.11
2023-07-25T18:27:41.417Z,99125.17
2023-07-25T18:30:11.196Z,99142.97
2023-07-25T18:32:39.712Z,99179.54
2023-07-25T18:35:08.920Z,99277.77
2023-07-25T18:37:37.448Z,99391.05
2023-07-25T18:40:07.090Z,99457.33
2023-07-25T18:42:35.608Z,99434.98
2023-07-25T18:45:04.806Z,99403.65
2023-07-25T18:50:56.175Z,99299.81
2023-07-25T18:53:24.747Z,99301.33
2023-07-25T18:55:53.258Z,99292.27
2023-07-25T18:58:21.888Z,99301.52
2023-07-25T19:00:50.558Z,99306.86
2023-07-25T19:03:19.470Z,99279.33
2023-07-25T19:05:53.778Z,99260.65
2023-07-25T19:08:22.217Z,99251.67
2023-07-25T19:10:50.662Z,99229.39
2023-07-25T19:13:19.142Z,99215.82
2023-07-25T19:15:47.636Z,99218.45
2023-07-25T19:18:16.113Z,99214.80
2023-07-25T19:20:44.641Z,99224.38
2023-07-25T19:23:25.013Z,99234.39
2023-07-25T19:26:00.287Z,99244.41
2023-07-25T19:28:29.353Z,99228.70
2023-07-25T19:30:59.252Z,99210.91
2023-07-25T19:33:30.647Z,99183.39
2023-07-25T19:36:00.373Z,99158.11
2023-07-25T19:38:29.738Z,99168.24
2023-07-25T19:40:58.418Z,99184.63
2023-07-25T19:43:26.988Z,99188.53
2023-07-25T19:46:02.617Z,99201.94
2023-07-25T19:48:31.125Z,99231.82
2023-07-25T19:50:59.663Z,99228.06
2023-07-25T19:53:28.132Z,99232.47
2023-07-25T19:55:56.615Z,99246.75
2023-07-25T19:58:25.184Z,99254.25
2023-07-25T20:00:53.813Z,99256.93
2023-07-25T20:03:22.446Z,99260.88
2023-07-25T20:05:51.015Z,99273.91
2023-07-25T20:08:19.463Z,99278.79
2023-07-25T20:10:48.007Z,99279.38
2023-07-25T20:13:16.592Z,99284.86
2023-07-25T20:15:47.128Z,99277.63
2023-07-25T20:18:15.991Z,99271.53
2023-07-25T20:20:44.489Z,99274.71
2023-07-25T20:23:12.938Z,99274.71
2023-07-25T20:25:41.461Z,99280.98
2023-07-25T20:28:10.036Z,99277.98
2023-07-25T20:30:38.493Z,99281.06
2023-07-25T20:33:07.061Z,99279.16
2023-07-25T20:35:37.145Z,99275.29
2023-07-25T20:38:05.758Z,99284.74
2023-07-25T20:40:35.232Z,99282.67
2023-07-25T20:43:03.711Z,99283.33
2023-07-25T20:45:36.235Z,99280.70
2023-07-25T20:48:05.705Z,99291.19
2023-07-25T20:50:34.270Z,99280.70
2023-07-25T20:53:03.290Z,99269.29
2023-07-25T20:55:31.829Z,99260.14
2023-07-25T20:58:00.687Z,99251.52
2023-07-25T21:00:29.234Z,99253.38
2023-07-25T21:02:57.794Z,99250.85
2023-07-25T21:05:26.391Z,99246.63
2023-07-25T21:07:54.843Z,99241.61
2023-07-25T21:10:23.384Z,99243.14
2023-07-25T21:12:51.880Z,99243.14
2023-07-25T21:15:20.401Z,99243.92
2023-07-25T21:17:55.600Z,99239.25
2023-07-25T21:20:31.469Z,99231.96
2023-07-25T21:23:00.213Z,99226.50
2023-07-25T21:25:28.806Z,99224.27
2023-07-25T21:27:57.337Z,99224.73
2023-07-25T21:30:25.907Z,99224.56
2023-07-25T21:32:54.462Z,99226.21
2023-07-25T21:35:23.103Z,99222.40
2023-07-25T21:37:52.553Z,99227.18
2023-07-25T21:40:21.066Z,99235.48
2023-07-25T21:42:49.526Z,99241.84
2023-07-25T21:45:17.994Z,99241.95
2023-07-25T21:47:46.814Z,99237.58
2023-07-25T21:50:15.427Z,99237.14
2023-07-25T21:52:43.837Z,99229.73
2023-07-25T21:55:12.320Z,99236.20
2023-07-25T21:57:40.835Z,99242.98
2023-07-25T22:00:09.751Z,99236.58
2023-07-25T22:02:41.522Z,99230.54
2023-07-25T22:05:10.259Z,99228.45
2023-07-25T22:07:40.090Z,99223.45
2023-07-25T22:10:08.944Z,99232.71
2023-07-25T22:12:37.397Z,99236.40
2023-07-25T22:15:08.111Z,99236.02
2023-07-25T22:17:36.570Z,99238.56
2023-07-25T22:20:06.634Z,99242.67
2023-07-25T22:22:35.122Z,99238.44
2023-07-25T22:25:05.099Z,99224.67
2023-07-25T22:27:34.171Z,99226.52
2023-07-25T22:30:02.625Z,99227.16
2023-07-25T22:32:31.150Z,99225.52
2023-07-25T22:34:59.624Z,99223.35
2023-07-25T22:37:31.097Z,99205.04
2023-07-25T22:39:59.688Z,99188.62
2023-07-25T22:42:28.278Z,99186.54
2023-07-25T22:44:56.885Z,99192.05
2023-07-25T22:47:25.383Z,99191.33
2023-07-25T22:49:53.948Z,99185.74
2023-07-25T22:52:23.491Z,99178.66
2023-07-25T22:54:52.093Z,99178.46
2023-07-25T22:57:20.572Z,99167.91
2023-07-25T22:59:49.025Z,99169.45
2023-07-25T23:02:17.543Z,99177.04
2023-07-25T23:04:46.121Z,99177.19
2023-07-25T23:07:14.631Z,99178.14
2023-07-25T23:09:43.113Z,99178.83
2023-07-25T23:12:13.572Z,99170.02
2023-07-25T23:14:42.081Z,99155.71
2023-07-25T23:17:10.570Z,99149.27
2023-07-25T23:19:39.124Z,99140.28
2023-07-25T23:22:07.628Z,99137.23
2023-07-25T23:24:36.190Z,99136.59
2023-07-25T23:27:05.025Z,99141.17
2023-07-25T23:29:33.499Z,99140.14
2023-07-25T23:32:02.037Z,99143.14
2023-07-25T23:34:44.325Z,99134.34
2023-07-25T23:37:13.135Z,99131.05
2023-07-25T23:39:41.735Z,99125.92
2023-07-25T23:42:10.547Z,99114.96
2023-07-25T23:44:39.097Z,99106.27
2023-07-25T23:47:07.983Z,99102.05
2023-07-25T23:49:36.685Z,99098.27
2023-07-25T23:52:05.994Z,99096.34
2023-07-25T23:54:34.667Z,99093.02
2023-07-25T23:57:04.741Z,99095.98
2023-07-25T23:59:33.235Z,99097.27
